createdAt,value
2023-03-27T00:00:37.870Z,10
2023-03-27T00:01:44.840Z,10
2023-03-27T00:02:51.859Z,10
2023-03-27T00:03:58.483Z,10
2023-03-27T00:05:05.268Z,10
2023-03-27T00:06:12.106Z,10
2023-03-27T00:07:21.461Z,10
2023-03-27T00:08:28.342Z,10
2023-03-27T00:09:35.208Z,10
2023-03-27T00:10:41.986Z,10
2023-03-27T00:11:48.838Z,10
2023-03-27T00:12:55.663Z,12
2023-03-27T00:14:02.546Z,14
2023-03-27T00:15:09.467Z,15
2023-03-27T00:16:21.507Z,17
2023-03-27T00:17:28.312Z,16
2023-03-27T00:18:35.140Z,15
2023-03-27T00:19:41.983Z,14
2023-03-27T00:20:48.767Z,14
2023-03-27T00:21:55.600Z,13
2023-03-27T00:23:02.613Z,12
2023-03-27T00:24:09.382Z,14
2023-03-27T00:25:16.185Z,14
2023-03-27T00:26:22.966Z,14
2023-03-27T00:27:29.887Z,16
2023-03-27T00:28:36.739Z,14
2023-03-27T00:29:43.532Z,16
2023-03-27T00:30:50.336Z,16
2023-03-27T00:31:57.122Z,16
2023-03-27T00:33:03.969Z,15
2023-03-27T00:34:10.884Z,15
2023-03-27T00:35:17.751Z,15
2023-03-27T00:36:24.536Z,16
2023-03-27T00:37:31.301Z,15
2023-03-27T00:38:38.101Z,16
2023-03-27T00:39:44.913Z,15
2023-03-27T00:40:51.676Z,15
2023-03-27T00:41:58.528Z,15
2023-03-27T00:43:05.344Z,15
2023-03-27T00:44:20.164Z,15
2023-03-27T00:45:29.873Z,14
2023-03-27T00:46:36.681Z,15
2023-03-27T00:47:43.461Z,14
2023-03-27T00:48:50.266Z,14
2023-03-27T00:49:57.092Z,15
2023-03-27T00:51:03.873Z,15
2023-03-27T00:52:10.756Z,15
2023-03-27T00:53:17.572Z,15
2023-03-27T00:54:24.331Z,15
2023-03-27T00:55:31.134Z,15
2023-03-27T00:56:38.064Z,15
2023-03-27T00:57:44.780Z,14
2023-03-27T00:58:54.476Z,14
2023-03-27T01:00:01.311Z,15
2023-03-27T01:01:08.321Z,15
2023-03-27T01:02:15.091Z,15
2023-03-27T01:03:22.028Z,15
2023-03-27T01:04:28.786Z,15
2023-03-27T01:05:35.614Z,14
2023-03-27T01:06:42.467Z,14
2023-03-27T01:07:51.340Z,14
2023-03-27T01:08:56.077Z,15
2023-03-27T01:10:02.962Z,14
2023-03-27T01:11:10.052Z,14
2023-03-27T01:12:21.908Z,15
2023-03-27T01:13:33.856Z,14
2023-03-27T01:14:50.804Z,14
2023-03-27T01:16:07.741Z,14
2023-03-27T01:17:19.571Z,16
2023-03-27T01:18:26.404Z,14
2023-03-27T01:19:33.299Z,14
2023-03-27T01:20:47.876Z,14
2023-03-27T01:22:02.568Z,14
2023-03-27T01:23:14.561Z,15
2023-03-27T01:24:24.002Z,13
2023-03-27T01:25:38.918Z,14
2023-03-27T01:26:55.819Z,15
2023-03-27T01:28:07.725Z,15
2023-03-27T01:29:19.705Z,15
2023-03-27T01:30:26.479Z,15
2023-03-27T01:31:36.210Z,13
2023-03-27T01:32:50.971Z,14
2023-03-27T01:34:05.451Z,13
2023-03-27T01:35:22.366Z,13
2023-03-27T01:36:37.038Z,12
2023-03-27T01:37:54.059Z,13
2023-03-27T01:39:10.990Z,16
2023-03-27T01:40:20.416Z,15
2023-03-27T01:41:27.232Z,15
2023-03-27T01:42:39.008Z,16
2023-03-27T01:43:53.871Z,17
2023-03-27T01:45:03.601Z,18
2023-03-27T01:46:20.514Z,16
2023-03-27T01:47:27.316Z,17
2023-03-27T01:48:41.663Z,16
2023-03-27T01:49:51.201Z,17
2023-03-27T01:51:05.894Z,18
2023-03-27T01:52:18.486Z,18
2023-03-27T01:53:25.350Z,18
2023-03-27T01:54:37.226Z,18
2023-03-27T01:55:46.816Z,18
2023-03-27T01:56:53.928Z,18
2023-03-27T01:58:03.271Z,19
2023-03-27T01:59:10.053Z,19
2023-03-27T02:00:17.908Z,18
2023-03-27T02:01:23.845Z,20
2023-03-27T02:02:36.144Z,19
2023-03-27T02:03:42.896Z,19
2023-03-27T02:04:49.754Z,19
2023-03-27T02:06:01.603Z,19
2023-03-27T02:07:11.217Z,20
2023-03-27T02:08:18.000Z,20
2023-03-27T02:09:27.573Z,19
2023-03-27T02:10:34.351Z,20
2023-03-27T02:11:41.136Z,19
2023-03-27T02:12:47.952Z,21
2023-03-27T02:14:02.543Z,20
2023-03-27T02:15:22.805Z,20
2023-03-27T02:16:18.850Z,20
2023-03-27T02:17:25.715Z,18
2023-03-27T02:18:32.449Z,19
2023-03-27T02:19:39.223Z,19
2023-03-27T02:20:48.924Z,18
2023-03-27T02:21:55.709Z,16
2023-03-27T02:23:02.689Z,17
2023-03-27T02:24:09.470Z,17
2023-03-27T02:25:16.267Z,16
2023-03-27T02:26:28.085Z,16
2023-03-27T02:27:34.910Z,16
2023-03-27T02:28:41.702Z,15
2023-03-27T02:29:58.720Z,17
2023-03-27T02:31:31.941Z,16
2023-03-27T02:32:20.550Z,16
2023-03-27T02:33:32.392Z,15
2023-03-27T02:34:49.309Z,16
2023-03-27T02:35:56.230Z,16
2023-03-27T02:37:08.066Z,16
2023-03-27T02:38:14.930Z,16
2023-03-27T02:39:31.871Z,14
2023-03-27T02:40:48.767Z,15
2023-03-27T02:41:58.651Z,15
2023-03-27T02:43:13.317Z,15
2023-03-27T02:44:30.178Z,16
2023-03-27T02:45:40.087Z,16
2023-03-27T02:46:54.608Z,16
2023-03-27T02:48:06.588Z,16
2023-03-27T02:49:13.335Z,15
2023-03-27T02:50:23.230Z,14
2023-03-27T02:51:35.129Z,14
2023-03-27T02:52:42.065Z,15
2023-03-27T02:53:48.869Z,14
2023-03-27T02:55:08.847Z,14
2023-03-27T02:56:20.687Z,14
2023-03-27T02:57:27.462Z,15
2023-03-27T02:58:34.251Z,15
2023-03-27T02:59:46.055Z,14
2023-03-27T03:00:53.001Z,14
2023-03-27T03:01:59.894Z,14
2023-03-27T03:03:06.956Z,14
2023-03-27T03:04:16.653Z,13
2023-03-27T03:05:28.489Z,14
2023-03-27T03:06:35.374Z,13
2023-03-27T03:07:42.173Z,13
2023-03-27T03:08:48.972Z,12
2023-03-27T03:09:55.744Z,12
2023-03-27T03:11:02.533Z,12
2023-03-27T03:12:12.254Z,11
2023-03-27T03:13:19.141Z,12
2023-03-27T03:14:25.955Z,12
2023-03-27T03:15:35.330Z,11
2023-03-27T03:16:42.130Z,11
2023-03-27T03:17:48.917Z,10
2023-03-27T03:18:55.841Z,9
2023-03-27T03:20:02.785Z,9
2023-03-27T03:21:09.941Z,10
2023-03-27T03:22:16.870Z,10
2023-03-27T03:23:23.687Z,9
2023-03-27T03:24:30.460Z,10
2023-03-27T03:25:37.420Z,10
2023-03-27T03:26:44.240Z,9
2023-03-27T03:27:51.078Z,9
2023-03-27T03:28:59.894Z,8
2023-03-27T03:30:04.717Z,8
2023-03-27T03:31:11.817Z,8
2023-03-27T03:32:18.639Z,7
2023-03-27T03:33:25.499Z,7
2023-03-27T03:34:32.319Z,7
2023-03-27T03:35:39.220Z,7
2023-03-27T03:36:45.863Z,7
2023-03-27T03:37:52.696Z,8
2023-03-27T03:38:59.412Z,7
2023-03-27T03:40:06.250Z,7
2023-03-27T03:41:13.323Z,7
2023-03-27T03:42:22.520Z,7
2023-03-27T03:43:27.013Z,7
2023-03-27T03:44:33.748Z,7
2023-03-27T03:45:40.625Z,7
2023-03-27T03:46:47.391Z,7
2023-03-27T03:47:54.181Z,7
2023-03-27T03:49:01.069Z,7
2023-03-27T03:50:07.931Z,8
2023-03-27T03:51:14.740Z,7
2023-03-27T03:52:21.435Z,7
2023-03-27T03:53:28.218Z,7
2023-03-27T03:54:35.102Z,7
2023-03-27T03:55:41.927Z,7
2023-03-27T03:56:48.769Z,7
2023-03-27T03:57:55.816Z,7
2023-03-27T03:59:02.685Z,7
2023-03-27T04:00:09.522Z,7
2023-03-27T04:01:16.648Z,6
2023-03-27T04:02:23.518Z,7
2023-03-27T04:03:33.149Z,7
2023-03-27T04:04:39.907Z,7
2023-03-27T04:05:46.679Z,6
2023-03-27T04:06:53.510Z,6
2023-03-27T04:08:00.345Z,6
2023-03-27T04:09:07.169Z,6
2023-03-27T04:10:13.957Z,7
2023-03-27T04:11:20.770Z,6
2023-03-27T04:12:27.550Z,6
2023-03-27T04:13:34.325Z,7
2023-03-27T04:14:41.116Z,6
2023-03-27T04:15:47.897Z,6
2023-03-27T04:16:54.646Z,6
2023-03-27T04:18:01.457Z,6
2023-03-27T04:19:08.200Z,6
2023-03-27T04:20:14.985Z,7
2023-03-27T04:21:21.826Z,6
2023-03-27T04:22:28.677Z,6
2023-03-27T04:23:35.424Z,6
2023-03-27T04:24:42.260Z,6
2023-03-27T04:25:49.149Z,6
2023-03-27T04:26:55.889Z,6
2023-03-27T04:28:02.657Z,6
2023-03-27T04:29:09.428Z,6
2023-03-27T04:30:16.214Z,6
2023-03-27T04:31:23.044Z,6
2023-03-27T04:32:29.852Z,6
2023-03-27T04:33:36.731Z,6
2023-03-27T04:34:43.496Z,6
2023-03-27T04:36:05.814Z,7
2023-03-27T04:36:57.282Z,7
2023-03-27T04:38:04.120Z,7
2023-03-27T04:39:10.902Z,8
2023-03-27T04:40:17.685Z,8
2023-03-27T04:41:24.579Z,8
2023-03-27T04:42:31.404Z,9
2023-03-27T04:43:38.278Z,9
2023-03-27T04:44:45.104Z,8
2023-03-27T04:45:51.884Z,10
2023-03-27T04:46:58.820Z,9
2023-03-27T04:48:05.658Z,10
2023-03-27T04:49:12.461Z,9
2023-03-27T04:50:22.203Z,10
2023-03-27T04:51:28.946Z,10
2023-03-27T04:52:35.729Z,9
2023-03-27T04:53:42.517Z,10
2023-03-27T04:54:49.374Z,10
2023-03-27T04:55:56.187Z,10
2023-03-27T04:57:07.613Z,9
2023-03-27T04:58:16.964Z,9
2023-03-27T04:59:23.826Z,9
2023-03-27T05:00:30.601Z,10
2023-03-27T05:01:37.484Z,9
2023-03-27T05:02:44.300Z,10
2023-03-27T05:03:51.182Z,9
2023-03-27T05:04:57.915Z,8
2023-03-27T05:06:04.724Z,8
2023-03-27T05:07:11.576Z,9
2023-03-27T05:08:18.411Z,8
2023-03-27T05:09:25.323Z,8
2023-03-27T05:10:32.065Z,8
2023-03-27T05:11:39.021Z,9
2023-03-27T05:12:45.796Z,8
2023-03-27T05:13:52.606Z,8
2023-03-27T05:14:59.451Z,8
2023-03-27T05:16:06.222Z,7
2023-03-27T05:17:13.059Z,8
2023-03-27T05:18:19.924Z,8
2023-03-27T05:19:26.892Z,9
2023-03-27T05:20:33.594Z,9
2023-03-27T05:21:40.404Z,8
2023-03-27T05:22:47.225Z,8
2023-03-27T05:23:56.763Z,7
2023-03-27T05:25:03.587Z,8
2023-03-27T05:26:10.443Z,8
2023-03-27T05:27:17.172Z,8
2023-03-27T05:28:23.975Z,7
2023-03-27T05:29:30.760Z,7
2023-03-27T05:30:37.569Z,8
2023-03-27T05:31:44.364Z,8
2023-03-27T05:32:51.187Z,8
2023-03-27T05:33:57.996Z,8
2023-03-27T05:35:04.805Z,8
2023-03-27T05:36:11.593Z,8
2023-03-27T05:37:21.380Z,9
2023-03-27T05:38:28.131Z,9
2023-03-27T05:39:34.880Z,9
2023-03-27T05:40:41.851Z,8
2023-03-27T05:41:48.651Z,8
2023-03-27T05:42:55.578Z,7
2023-03-27T05:44:02.352Z,8
2023-03-27T05:45:09.144Z,9
2023-03-27T05:46:20.732Z,8
2023-03-27T05:47:22.898Z,8
2023-03-27T05:48:29.638Z,8
2023-03-27T05:49:36.388Z,8
2023-03-27T05:50:43.143Z,9
2023-03-27T05:51:50.018Z,9
2023-03-27T05:52:56.834Z,9
2023-03-27T05:54:03.625Z,9
2023-03-27T05:55:10.446Z,9
2023-03-27T05:56:17.176Z,9
2023-03-27T05:57:23.989Z,10
2023-03-27T05:58:30.821Z,10
2023-03-27T05:59:37.634Z,8
2023-03-27T06:00:44.427Z,9
2023-03-27T06:01:51.256Z,10
2023-03-27T06:02:58.116Z,10
2023-03-27T06:04:05.021Z,9
2023-03-27T06:05:11.757Z,11
2023-03-27T06:06:18.547Z,11
2023-03-27T06:07:25.304Z,11
2023-03-27T06:08:32.176Z,12
2023-03-27T06:09:38.946Z,12
2023-03-27T06:10:45.741Z,11
2023-03-27T06:11:52.595Z,11
2023-03-27T06:12:59.393Z,12
2023-03-27T06:14:11.211Z,12
2023-03-27T06:15:17.991Z,11
2023-03-27T06:16:24.976Z,11
2023-03-27T06:17:31.832Z,10
2023-03-27T06:18:38.649Z,12
2023-03-27T06:19:45.412Z,11
2023-03-27T06:20:52.177Z,12
2023-03-27T06:21:58.961Z,11
2023-03-27T06:23:05.937Z,11
2023-03-27T06:24:12.713Z,12
2023-03-27T06:25:19.481Z,11
2023-03-27T06:26:26.270Z,12
2023-03-27T06:27:33.086Z,12
2023-03-27T06:28:39.888Z,11
2023-03-27T06:29:46.713Z,11
2023-03-27T06:30:53.560Z,12
2023-03-27T06:32:00.323Z,11
2023-03-27T06:33:07.291Z,11
2023-03-27T06:34:13.958Z,12
2023-03-27T06:35:20.896Z,12
2023-03-27T06:36:27.762Z,11
2023-03-27T06:37:34.455Z,11
2023-03-27T06:38:41.196Z,11
2023-03-27T06:39:48.027Z,9
2023-03-27T06:40:54.946Z,9
2023-03-27T06:42:01.695Z,9
2023-03-27T06:43:08.567Z,9
2023-03-27T06:44:15.297Z,8
2023-03-27T06:45:22.095Z,9
2023-03-27T06:46:43.039Z,9
2023-03-27T06:47:53.628Z,9
2023-03-27T06:48:52.230Z,9
2023-03-27T06:49:59.034Z,8
2023-03-27T06:51:05.800Z,8
2023-03-27T06:52:12.620Z,8
2023-03-27T06:54:26.228Z,9
2023-03-27T06:55:33.129Z,9
2023-03-27T06:56:40.052Z,9
2023-03-27T06:57:46.857Z,8
2023-03-27T06:58:53.703Z,9
2023-03-27T07:00:02.397Z,8
2023-03-27T07:01:07.561Z,7
2023-03-27T07:02:14.433Z,7
2023-03-27T07:03:21.237Z,7
2023-03-27T07:04:27.992Z,6
2023-03-27T07:05:34.824Z,7
2023-03-27T07:06:41.612Z,7
2023-03-27T07:07:49.316Z,8
2023-03-27T07:08:55.256Z,8
2023-03-27T07:10:02.041Z,6
2023-03-27T07:11:11.917Z,7
2023-03-27T07:12:16.046Z,7
2023-03-27T07:13:22.974Z,7
2023-03-27T07:14:29.769Z,6
2023-03-27T07:15:36.495Z,7
2023-03-27T07:16:43.358Z,7
2023-03-27T07:17:50.127Z,7
2023-03-27T07:19:02.079Z,7
2023-03-27T07:20:06.695Z,7
2023-03-27T07:21:13.688Z,7
2023-03-27T07:22:20.674Z,7
2023-03-27T07:23:27.355Z,7
2023-03-27T07:24:34.115Z,7
2023-03-27T07:25:40.951Z,6
2023-03-27T07:26:47.712Z,7
2023-03-27T07:27:54.600Z,7
2023-03-27T07:29:04.046Z,7
2023-03-27T07:30:10.890Z,7
2023-03-27T07:31:29.637Z,7
2023-03-27T07:32:34.297Z,8
2023-03-27T07:33:31.467Z,7
2023-03-27T07:34:38.243Z,7
2023-03-27T07:35:44.990Z,7
2023-03-27T07:36:51.826Z,7
2023-03-27T07:37:58.651Z,8
2023-03-27T07:39:05.417Z,7
2023-03-27T07:40:12.308Z,6
2023-03-27T07:41:19.486Z,8
2023-03-27T07:42:26.525Z,7
2023-03-27T07:43:33.674Z,8
2023-03-27T07:44:40.469Z,7
2023-03-27T07:45:47.277Z,8
2023-03-27T07:46:54.050Z,7
2023-03-27T07:48:00.883Z,8
2023-03-27T07:49:10.451Z,8
2023-03-27T07:50:17.342Z,7
2023-03-27T07:51:24.154Z,7
2023-03-27T07:52:31.075Z,7
2023-03-27T07:53:37.835Z,8
2023-03-27T07:54:44.615Z,8
2023-03-27T07:55:51.415Z,8
2023-03-27T07:56:58.437Z,8
2023-03-27T07:58:05.131Z,8
2023-03-27T07:59:11.986Z,10
2023-03-27T08:00:18.786Z,10
2023-03-27T08:01:28.323Z,10
2023-03-27T08:02:35.177Z,10
2023-03-27T08:03:42.184Z,9
2023-03-27T08:04:48.977Z,9
2023-03-27T08:05:55.910Z,8
2023-03-27T08:07:02.443Z,9
2023-03-27T08:08:09.275Z,9
2023-03-27T08:09:16.379Z,8
2023-03-27T08:10:23.366Z,8
2023-03-27T08:11:31.126Z,8
2023-03-27T08:12:36.855Z,9
2023-03-27T08:13:43.647Z,8
2023-03-27T08:14:50.475Z,9
2023-03-27T08:15:57.499Z,10
2023-03-27T08:17:15.425Z,9
2023-03-27T08:18:16.044Z,9
2023-03-27T08:19:22.763Z,9
2023-03-27T08:20:29.538Z,9
2023-03-27T08:21:36.344Z,10
2023-03-27T08:22:43.145Z,11
2023-03-27T08:23:49.934Z,11
2023-03-27T08:24:56.698Z,10
2023-03-27T08:26:03.475Z,10
2023-03-27T08:27:10.283Z,11
2023-03-27T08:28:17.176Z,10
2023-03-27T08:29:23.958Z,12
2023-03-27T08:30:30.828Z,12
2023-03-27T08:31:37.590Z,14
2023-03-27T08:32:44.440Z,13
2023-03-27T08:33:51.213Z,12
2023-03-27T08:34:58.128Z,12
2023-03-27T08:36:04.906Z,11
2023-03-27T08:37:11.845Z,23
2023-03-27T08:38:25.929Z,18
2023-03-27T08:39:25.496Z,27
2023-03-27T08:40:32.314Z,30
2023-03-27T08:41:39.132Z,15
2023-03-27T08:42:56.058Z,29
2023-03-27T08:44:05.470Z,62
2023-03-27T08:45:17.318Z,15
2023-03-27T08:46:26.788Z,8
2023-03-27T08:47:41.711Z,7
2023-03-27T08:48:53.623Z,8
2023-03-27T08:50:00.435Z,45
2023-03-27T08:51:07.313Z,12
2023-03-27T08:52:17.100Z,13
2023-03-27T08:53:29.644Z,13
2023-03-27T08:54:41.546Z,13
2023-03-27T08:55:48.335Z,11
2023-03-27T08:56:55.091Z,8
2023-03-27T08:58:01.810Z,8
2023-03-27T08:59:08.623Z,7
2023-03-27T09:00:15.544Z,8
2023-03-27T09:01:25.281Z,8
2023-03-27T09:02:42.236Z,7
2023-03-27T09:03:54.119Z,7
2023-03-27T09:05:05.875Z,8
2023-03-27T09:06:12.795Z,9
2023-03-27T09:07:19.585Z,7
2023-03-27T09:08:31.447Z,7
2023-03-27T09:09:43.414Z,8
2023-03-27T09:10:55.350Z,7
2023-03-27T09:12:07.353Z,7
2023-03-27T09:13:21.939Z,6
2023-03-27T09:14:36.728Z,4
2023-03-27T09:15:43.513Z,4
2023-03-27T09:17:00.426Z,4
2023-03-27T09:18:12.324Z,5
2023-03-27T09:19:19.123Z,3
2023-03-27T09:20:36.075Z,3
2023-03-27T09:21:42.886Z,4
2023-03-27T09:22:54.714Z,3
2023-03-27T09:24:11.601Z,3
2023-03-27T09:25:18.418Z,2
2023-03-27T09:26:33.014Z,3
2023-03-27T09:27:39.832Z,3
2023-03-27T09:28:47.945Z,3
2023-03-27T09:30:04.785Z,3
2023-03-27T09:31:05.691Z,2
2023-03-27T09:32:17.491Z,2
2023-03-27T09:33:24.433Z,2
2023-03-27T09:34:31.200Z,2
2023-03-27T09:35:38.046Z,2
2023-03-27T09:36:44.826Z,1
2023-03-27T09:37:51.603Z,2
2023-03-27T09:38:58.489Z,2
2023-03-27T09:40:05.392Z,6
2023-03-27T09:41:12.299Z,2
2023-03-27T09:42:21.995Z,3
2023-03-27T09:43:33.822Z,3
2023-03-27T09:44:43.501Z,2
2023-03-27T09:45:50.354Z,1
2023-03-27T09:46:57.200Z,2
2023-03-27T09:48:09.097Z,4
2023-03-27T09:49:20.903Z,3
2023-03-27T09:50:27.981Z,2
2023-03-27T09:51:42.497Z,2
2023-03-27T09:52:52.103Z,2
2023-03-27T09:54:09.019Z,1
2023-03-27T09:55:15.821Z,2
2023-03-27T09:56:27.678Z,2
2023-03-27T09:57:34.516Z,2
2023-03-27T09:58:41.357Z,2
2023-03-27T09:59:48.118Z,2
2023-03-27T10:00:58.019Z,3
2023-03-27T10:02:09.618Z,2
2023-03-27T10:03:21.714Z,2
2023-03-27T10:04:28.363Z,2
2023-03-27T10:05:35.154Z,2
2023-03-27T10:06:41.904Z,2
2023-03-27T10:07:53.791Z,2
2023-03-27T10:09:00.535Z,2
2023-03-27T10:10:17.596Z,2
2023-03-27T10:11:24.299Z,2
2023-03-27T10:12:31.068Z,2
2023-03-27T10:13:37.847Z,2
2023-03-27T10:14:47.417Z,2
2023-03-27T10:15:54.274Z,2
2023-03-27T10:17:01.184Z,2
2023-03-27T10:18:07.923Z,2
2023-03-27T10:19:24.700Z,1
2023-03-27T10:20:31.808Z,2
2023-03-27T10:21:38.671Z,2
2023-03-27T10:22:45.433Z,2
2023-03-27T10:23:54.992Z,2
2023-03-27T10:25:01.729Z,2
2023-03-27T10:26:13.744Z,2
2023-03-27T10:27:20.487Z,2
2023-03-27T10:28:27.234Z,2
2023-03-27T10:29:38.301Z,2
2023-03-27T10:30:43.343Z,2
2023-03-27T10:31:50.245Z,2
2023-03-27T10:32:57.011Z,2
2023-03-27T10:34:03.820Z,2
2023-03-27T10:35:10.654Z,2
2023-03-27T10:36:27.591Z,2
2023-03-27T10:37:34.464Z,3
2023-03-27T10:38:41.156Z,3
2023-03-27T10:39:47.979Z,2
2023-03-27T10:40:54.969Z,2
2023-03-27T10:42:01.603Z,2
2023-03-27T10:43:08.881Z,2
2023-03-27T10:44:15.285Z,2
2023-03-27T10:45:22.088Z,2
2023-03-27T10:46:28.913Z,2
2023-03-27T10:47:35.816Z,2
2023-03-27T10:48:42.432Z,2
2023-03-27T10:49:52.101Z,2
2023-03-27T10:51:04.017Z,3
2023-03-27T10:52:10.817Z,3
2023-03-27T10:53:22.688Z,3
2023-03-27T10:54:32.695Z,3
2023-03-27T10:55:44.670Z,3
2023-03-27T10:56:54.269Z,3
2023-03-27T10:58:06.176Z,3
2023-03-27T10:59:23.371Z,2
2023-03-27T11:00:30.734Z,2
2023-03-27T11:01:37.614Z,3
2023-03-27T11:02:44.366Z,2
2023-03-27T11:03:54.264Z,2
2023-03-27T11:05:06.107Z,3
2023-03-27T11:06:12.888Z,3
2023-03-27T11:07:19.770Z,3
2023-03-27T11:08:26.565Z,3
2023-03-27T11:09:39.092Z,3
2023-03-27T11:10:45.961Z,3
2023-03-27T11:11:52.777Z,3
2023-03-27T11:13:02.049Z,3
2023-03-27T11:14:11.528Z,3
2023-03-27T11:15:23.474Z,5
2023-03-27T11:16:33.123Z,3
2023-03-27T11:17:42.932Z,3
2023-03-27T11:18:52.372Z,3
2023-03-27T11:20:09.266Z,3
2023-03-27T11:21:21.182Z,3
2023-03-27T11:22:38.095Z,7
2023-03-27T11:23:44.875Z,5
2023-03-27T11:24:56.819Z,5
2023-03-27T11:26:03.712Z,5
2023-03-27T11:27:11.392Z,3
2023-03-27T11:28:17.228Z,4
2023-03-27T11:29:34.143Z,5
2023-03-27T11:30:46.081Z,5
2023-03-27T11:31:53.092Z,7
2023-03-27T11:32:59.831Z,3
2023-03-27T11:34:28.697Z,4
2023-03-27T11:35:31.323Z,4
2023-03-27T11:36:38.080Z,4
2023-03-27T11:37:52.873Z,4
2023-03-27T11:38:59.675Z,3
2023-03-27T11:40:16.580Z,4
2023-03-27T11:41:28.439Z,4
2023-03-27T11:42:35.243Z,4
2023-03-27T11:43:42.071Z,4
2023-03-27T11:44:48.879Z,5
2023-03-27T11:45:55.814Z,6
2023-03-27T11:47:02.542Z,5
2023-03-27T11:48:14.393Z,5
2023-03-27T11:49:31.325Z,5
2023-03-27T11:50:48.211Z,3
2023-03-27T11:52:05.199Z,3
2023-03-27T11:53:14.804Z,3
2023-03-27T11:54:24.488Z,3
2023-03-27T11:55:36.338Z,3
2023-03-27T11:56:53.380Z,3
2023-03-27T11:58:00.216Z,4
2023-03-27T11:59:17.162Z,4
2023-03-27T12:00:34.174Z,3
2023-03-27T12:01:43.641Z,3
2023-03-27T12:02:50.632Z,3
2023-03-27T12:04:00.009Z,2
2023-03-27T12:05:14.918Z,3
2023-03-27T12:06:26.799Z,3
2023-03-27T12:07:40.548Z,3
2023-03-27T12:08:46.080Z,4
2023-03-27T12:09:55.230Z,3
2023-03-27T12:11:12.245Z,2
2023-03-27T12:12:19.052Z,2
2023-03-27T12:13:41.581Z,3
2023-03-27T12:14:52.918Z,3
2023-03-27T12:16:04.763Z,3
2023-03-27T12:17:16.809Z,3
2023-03-27T12:18:32.429Z,4
2023-03-27T12:19:38.899Z,4
2023-03-27T12:20:53.479Z,3
2023-03-27T12:22:07.174Z,3
2023-03-27T12:23:20.519Z,4
2023-03-27T12:24:39.139Z,4
2023-03-27T12:25:52.195Z,4
2023-03-27T12:26:59.123Z,4
2023-03-27T12:28:07.133Z,4
2023-03-27T12:29:25.227Z,5
2023-03-27T12:30:32.037Z,3
2023-03-27T12:31:46.700Z,3
2023-03-27T12:33:03.708Z,3
2023-03-27T12:34:20.682Z,4
2023-03-27T12:35:33.422Z,3
2023-03-27T12:36:46.268Z,4
2023-03-27T12:38:00.969Z,3
2023-03-27T12:39:18.542Z,4
2023-03-27T12:40:25.493Z,4
2023-03-27T12:41:35.236Z,4
2023-03-27T12:42:43.790Z,5
2023-03-27T12:43:51.689Z,4
2023-03-27T12:45:01.140Z,9
2023-03-27T12:46:18.102Z,12
2023-03-27T12:47:27.820Z,8
2023-03-27T12:48:34.638Z,6
2023-03-27T12:49:51.540Z,4
2023-03-27T12:51:01.238Z,6
2023-03-27T12:52:07.836Z,8
2023-03-27T12:53:14.608Z,15
2023-03-27T12:54:29.474Z,16
2023-03-27T12:55:38.980Z,17
2023-03-27T12:56:45.750Z,15
2023-03-27T12:57:52.644Z,7
2023-03-27T12:58:59.472Z,4
2023-03-27T13:00:06.662Z,4
2023-03-27T13:01:23.480Z,10
2023-03-27T13:02:40.675Z,5
2023-03-27T13:03:55.362Z,5
2023-03-27T13:05:02.098Z,4
2023-03-27T13:06:19.008Z,11
2023-03-27T13:07:36.010Z,6
2023-03-27T13:08:50.418Z,7
2023-03-27T13:10:02.318Z,4
2023-03-27T13:11:09.064Z,5
2023-03-27T13:12:15.867Z,6
2023-03-27T13:13:30.574Z,4
2023-03-27T13:14:47.475Z,3
2023-03-27T13:16:04.459Z,4
2023-03-27T13:17:16.299Z,3
2023-03-27T13:18:28.157Z,3
2023-03-27T13:19:39.973Z,3
2023-03-27T13:20:51.838Z,4
2023-03-27T13:22:03.740Z,4
2023-03-27T13:23:15.588Z,3
2023-03-27T13:24:30.154Z,4
2023-03-27T13:25:47.571Z,4
2023-03-27T13:26:59.492Z,4
2023-03-27T13:28:08.935Z,3
2023-03-27T13:29:18.322Z,3
2023-03-27T13:30:25.132Z,4
2023-03-27T13:31:42.141Z,3
2023-03-27T13:32:48.916Z,4
2023-03-27T13:34:05.913Z,6
2023-03-27T13:35:20.298Z,5
2023-03-27T13:36:27.032Z,5
2023-03-27T13:37:36.369Z,4
2023-03-27T13:38:43.463Z,5
2023-03-27T13:39:55.317Z,5
2023-03-27T13:41:05.027Z,6
2023-03-27T13:42:21.942Z,6
2023-03-27T13:43:33.914Z,7
2023-03-27T13:44:40.626Z,5
2023-03-27T13:45:57.768Z,10
2023-03-27T13:47:04.884Z,9
2023-03-27T13:48:16.134Z,6
2023-03-27T13:49:28.074Z,6
2023-03-27T13:50:42.892Z,12
2023-03-27T13:51:59.816Z,11
2023-03-27T13:53:11.927Z,13
2023-03-27T13:54:28.818Z,10
2023-03-27T13:55:43.366Z,12
2023-03-27T13:56:50.207Z,9
2023-03-27T13:58:05.063Z,8
2023-03-27T13:59:17.371Z,8
2023-03-27T14:00:32.152Z,7
2023-03-27T14:01:46.901Z,13
2023-03-27T14:02:58.766Z,13
2023-03-27T14:04:15.509Z,11
2023-03-27T14:05:32.549Z,8
2023-03-27T14:06:47.175Z,10
2023-03-27T14:07:58.984Z,10
2023-03-27T14:09:13.819Z,12
2023-03-27T14:10:30.694Z,18
2023-03-27T14:11:40.343Z,14
2023-03-27T14:12:50.104Z,13
2023-03-27T14:14:02.008Z,11
2023-03-27T14:15:18.873Z,9
2023-03-27T14:16:35.854Z,11
2023-03-27T14:17:52.834Z,11
2023-03-27T14:19:09.816Z,10
2023-03-27T14:20:24.583Z,7
2023-03-27T14:21:38.699Z,6
2023-03-27T14:22:48.197Z,5
2023-03-27T14:24:00.167Z,4
2023-03-27T14:25:07.001Z,4
2023-03-27T14:26:18.918Z,4
2023-03-27T14:27:25.662Z,5
2023-03-27T14:28:32.539Z,4
2023-03-27T14:29:44.386Z,5
2023-03-27T14:31:04.040Z,5
2023-03-27T14:32:10.777Z,5
2023-03-27T14:33:17.634Z,3
2023-03-27T14:34:24.439Z,5
2023-03-27T14:35:31.208Z,6
2023-03-27T14:36:39.115Z,9
2023-03-27T14:37:47.621Z,3
2023-03-27T14:38:57.047Z,74
2023-03-27T14:40:03.851Z,49
2023-03-27T14:41:20.725Z,15
2023-03-27T14:42:29.228Z,4
2023-03-27T14:43:34.377Z,9
2023-03-27T14:44:41.133Z,3
2023-03-27T14:45:47.984Z,5
2023-03-27T14:46:54.713Z,9
2023-03-27T14:48:06.771Z,15
2023-03-27T14:49:24.625Z,7
2023-03-27T14:50:30.446Z,8
2023-03-27T14:51:37.407Z,10
2023-03-27T14:52:47.010Z,11
2023-03-27T14:53:53.872Z,6
2023-03-27T14:55:00.718Z,9
2023-03-27T14:56:07.665Z,9
2023-03-27T14:57:24.741Z,9
2023-03-27T14:58:31.507Z,7
2023-03-27T14:59:38.250Z,6
2023-03-27T15:00:45.140Z,4
2023-03-27T15:01:51.879Z,5
2023-03-27T15:02:58.671Z,4
2023-03-27T15:04:05.563Z,4
2023-03-27T15:05:12.341Z,4
2023-03-27T15:06:19.138Z,4
2023-03-27T15:07:25.917Z,4
2023-03-27T15:08:32.720Z,4
2023-03-27T15:09:39.635Z,4
2023-03-27T15:10:46.429Z,4
2023-03-27T15:11:53.216Z,4
2023-03-27T15:13:00.038Z,4
2023-03-27T15:14:06.828Z,4
2023-03-27T15:15:16.464Z,5
2023-03-27T15:16:26.086Z,4
2023-03-27T15:17:32.938Z,5
2023-03-27T15:18:39.711Z,4
2023-03-27T15:19:46.682Z,3
2023-03-27T15:20:53.408Z,4
2023-03-27T15:22:01.398Z,5
2023-03-27T15:23:07.135Z,6
2023-03-27T15:24:16.896Z,6
2023-03-27T15:25:28.771Z,4
2023-03-27T15:26:43.511Z,4
2023-03-27T15:27:50.320Z,6
2023-03-27T15:28:57.156Z,6
2023-03-27T15:30:03.988Z,8
2023-03-27T15:31:13.652Z,5
2023-03-27T15:32:20.420Z,6
2023-03-27T15:33:27.287Z,7
2023-03-27T15:34:34.089Z,5
2023-03-27T15:35:40.902Z,6
2023-03-27T15:36:47.710Z,4
2023-03-27T15:37:54.711Z,3
2023-03-27T15:39:01.428Z,3
2023-03-27T15:40:08.457Z,3
2023-03-27T15:41:21.191Z,3
2023-03-27T15:42:30.809Z,3
2023-03-27T15:43:47.794Z,3
2023-03-27T15:44:54.670Z,3
2023-03-27T15:46:01.969Z,3
2023-03-27T15:47:13.611Z,3
2023-03-27T15:48:25.592Z,3
2023-03-27T15:49:35.193Z,3
2023-03-27T15:50:42.045Z,3
2023-03-27T15:51:56.439Z,4
2023-03-27T15:53:03.259Z,4
2023-03-27T15:54:10.206Z,3
2023-03-27T15:55:27.202Z,3
2023-03-27T15:56:36.770Z,3
2023-03-27T15:57:43.515Z,3
2023-03-27T15:58:50.270Z,3
2023-03-27T15:59:57.109Z,3
2023-03-27T16:01:18.170Z,5
2023-03-27T16:02:13.897Z,3
2023-03-27T16:03:20.876Z,4
2023-03-27T16:04:27.584Z,3
2023-03-27T16:05:37.184Z,3
2023-03-27T16:06:44.328Z,3
2023-03-27T16:07:58.219Z,3
2023-03-27T16:09:05.043Z,3
2023-03-27T16:10:22.214Z,4
2023-03-27T16:11:31.881Z,3
2023-03-27T16:12:43.757Z,4
2023-03-27T16:13:50.662Z,3
2023-03-27T16:15:00.386Z,3
2023-03-27T16:16:07.261Z,3
2023-03-27T16:17:21.717Z,3
2023-03-27T16:18:34.131Z,4
2023-03-27T16:19:41.174Z,3
2023-03-27T16:20:58.090Z,3
2023-03-27T16:22:09.946Z,3
2023-03-27T16:23:16.774Z,3
2023-03-27T16:24:23.594Z,3
2023-03-27T16:25:30.410Z,3
2023-03-27T16:26:37.262Z,3
2023-03-27T16:27:44.128Z,3
2023-03-27T16:28:51.010Z,3
2023-03-27T16:29:57.816Z,3
2023-03-27T16:31:04.661Z,3
2023-03-27T16:32:16.452Z,4
2023-03-27T16:33:23.239Z,4
2023-03-27T16:34:30.140Z,3
2023-03-27T16:35:37.201Z,4
2023-03-27T16:36:44.089Z,4
2023-03-27T16:37:50.966Z,3
2023-03-27T16:38:57.740Z,3
2023-03-27T16:40:04.676Z,5
2023-03-27T16:41:11.920Z,4
2023-03-27T16:42:18.569Z,3
2023-03-27T16:43:25.377Z,4
2023-03-27T16:44:32.280Z,5
2023-03-27T16:45:39.071Z,5
2023-03-27T16:46:46.337Z,6
2023-03-27T16:47:53.547Z,6